sensor_id;sensor_type;location;lat;lon;timestamp;P1;P2;P0
44980;PMS5003;67464;52.438;-1.904;2023-02-28T00:00:41;11;10;
44980;PMS5003;67464;52.438;-1.904;2023-02-28T00:03:06;14;14;
44980;PMS5003;67464;52.438;-1.904;2023-02-28T00:05:31;9;9;
44980;PMS5003;67464;52.438;-1.904;2023-02-28T00:07:57;6;6;
44980;PMS5003;67464;52.438;-1.904;2023-02-28T00:10:23;9;9;
44980;PMS5003;67464;52.438;-1.904;2023-02-28T00:12:48;9;9;
44980;PMS5003;67464;52.438;-1.904;2023-02-28T00:15:14;12;10;
44980;PMS5003;67464;52.438;-1.904;2023-02-28T00:17:40;14;12;
44980;PMS5003;67464;52.438;-1.904;2023-02-28T00:20:06;6;6;
44980;PMS5003;67464;52.438;-1.904;2023-02-28T00:22:30;9;9;
44980;PMS5003;67464;52.438;-1.904;2023-02-28T00:24:56;15;14;
44980;PMS5003;67464;52.438;-1.904;2023-02-28T00:27:21;12;10;
44980;PMS5003;67464;52.438;-1.904;2023-02-28T00:29:46;14;14;
44980;PMS5003;67464;52.438;-1.904;2023-02-28T00:32:12;14;13;
44980;PMS5003;67464;52.438;-1.904;2023-02-28T00:34:38;8;8;
44980;PMS5003;67464;52.438;-1.904;2023-02-28T00:37:04;7;7;
44980;PMS5003;67464;52.438;-1.904;2023-02-28T00:39:29;14;14;
44980;PMS5003;67464;52.438;-1.904;2023-02-28T00:41:55;20;19;
44980;PMS5003;67464;52.438;-1.904;2023-02-28T00:44:20;11;10;
44980;PMS5003;67464;52.438;-1.904;2023-02-28T00:46:46;13;13;
44980;PMS5003;67464;52.438;-1.904;2023-02-28T00:49:12;19;17;
44980;PMS5003;67464;52.438;-1.904;2023-02-28T00:51:37;26;23;
44980;PMS5003;67464;52.438;-1.904;2023-02-28T00:54:03;29;24;
44980;PMS5003;67464;52.438;-1.904;2023-02-28T00:56:28;27;25;
44980;PMS5003;67464;52.438;-1.904;2023-02-28T00:58:54;27;23;
44980;PMS5003;67464;52.438;-1.904;2023-02-28T01:01:19;24;24;
44980;PMS5003;67464;52.438;-1.904;2023-02-28T01:03:45;30;24;
44980;PMS5003;67464;52.438;-1.904;2023-02-28T01:06:10;35;29;
44980;PMS5003;67464;52.438;-1.904;2023-02-28T01:08:36;38;35;
44980;PMS5003;67464;52.438;-1.904;2023-02-28T01:11:06;33;29;
44980;PMS5003;67464;52.438;-1.904;2023-02-28T01:13:27;35;32;
44980;PMS5003;67464;52.438;-1.904;2023-02-28T01:15:54;35;31;
44980;PMS5003;67464;52.438;-1.904;2023-02-28T01:18:17;37;33;
44980;PMS5003;67464;52.438;-1.904;2023-02-28T01:20:43;36;32;
44980;PMS5003;67464;52.438;-1.904;2023-02-28T01:23:08;29;26;
44980;PMS5003;67464;52.438;-1.904;2023-02-28T01:25:34;35;32;
44980;PMS5003;67464;52.438;-1.904;2023-02-28T01:28:00;32;30;
44980;PMS5003;67464;52.438;-1.904;2023-02-28T01:30:25;34;29;
44980;PMS5003;67464;52.438;-1.904;2023-02-28T01:32:51;29;28;
44980;PMS5003;67464;52.438;-1.904;2023-02-28T01:35:17;36;29;
44980;PMS5003;67464;52.438;-1.904;2023-02-28T01:37:43;38;32;
44980;PMS5003;67464;52.438;-1.904;2023-02-28T01:40:08;38;31;
44980;PMS5003;67464;52.438;-1.904;2023-02-28T01:42:33;36;29;
44980;PMS5003;67464;52.438;-1.904;2023-02-28T01:45:00;40;34;
44980;PMS5003;67464;52.438;-1.904;2023-02-28T01:47:24;29;23;
44980;PMS5003;67464;52.438;-1.904;2023-02-28T01:49:50;36;32;
44980;PMS5003;67464;52.438;-1.904;2023-02-28T01:52:15;38;30;
44980;PMS5003;67464;52.438;-1.904;2023-02-28T01:54:41;31;27;
44980;PMS5003;67464;52.438;-1.904;2023-02-28T01:57:07;34;31;
44980;PMS5003;67464;52.438;-1.904;2023-02-28T01:59:31;32;25;
44980;PMS5003;67464;52.438;-1.904;2023-02-28T02:01:56;31;28;
44980;PMS5003;67464;52.438;-1.904;2023-02-28T02:04:22;28;24;
44980;PMS5003;67464;52.438;-1.904;2023-02-28T02:06:47;32;29;
44980;PMS5003;67464;52.438;-1.904;2023-02-28T02:09:13;30;30;
44980;PMS5003;67464;52.438;-1.904;2023-02-28T02:11:39;28;22;
44980;PMS5003;67464;52.438;-1.904;2023-02-28T02:14:09;33;33;
44980;PMS5003;67464;52.438;-1.904;2023-02-28T02:16:34;27;27;
44980;PMS5003;67464;52.438;-1.904;2023-02-28T02:18:57;28;28;
44980;PMS5003;67464;52.438;-1.904;2023-02-28T02:26:17;29;28;
44980;PMS5003;67464;52.438;-1.904;2023-02-28T02:28:45;34;25;
44980;PMS5003;67464;52.438;-1.904;2023-02-28T02:31:06;28;22;
44980;PMS5003;67464;52.438;-1.904;2023-02-28T02:33:32;28;28;
44980;PMS5003;67464;52.438;-1.904;2023-02-28T02:35:54;23;21;
44980;PMS5003;67464;52.438;-1.904;2023-02-28T02:38:20;29;29;
44980;PMS5003;67464;52.438;-1.904;2023-02-28T02:40:46;25;21;
44980;PMS5003;67464;52.438;-1.904;2023-02-28T02:43:12;24;22;
44980;PMS5003;67464;52.438;-1.904;2023-02-28T02:45:36;27;22;
44980;PMS5003;67464;52.438;-1.904;2023-02-28T02:48:02;27;23;
44980;PMS5003;67464;52.438;-1.904;2023-02-28T02:50:29;29;23;
44980;PMS5003;67464;52.438;-1.904;2023-02-28T02:52:54;25;23;
44980;PMS5003;67464;52.438;-1.904;2023-02-28T02:55:19;24;23;
44980;PMS5003;67464;52.438;-1.904;2023-02-28T02:57:45;32;22;
44980;PMS5003;67464;52.438;-1.904;2023-02-28T03:00:10;26;26;
44980;PMS5003;67464;52.438;-1.904;2023-02-28T03:02:35;21;21;
44980;PMS5003;67464;52.438;-1.904;2023-02-28T03:05:01;26;24;
44980;PMS5003;67464;52.438;-1.904;2023-02-28T03:07:25;23;21;
44980;PMS5003;67464;52.438;-1.904;2023-02-28T03:09:51;28;23;
44980;PMS5003;67464;52.438;-1.904;2023-02-28T03:12:16;28;21;
44980;PMS5003;67464;52.438;-1.904;2023-02-28T03:14:44;26;23;
44980;PMS5003;67464;52.438;-1.904;2023-02-28T03:17:12;23;23;
44980;PMS5003;67464;52.438;-1.904;2023-02-28T03:19:34;22;20;
44980;PMS5003;67464;52.438;-1.904;2023-02-28T03:22:01;24;21;
44980;PMS5003;67464;52.438;-1.904;2023-02-28T03:24:23;30;23;
44980;PMS5003;67464;52.438;-1.904;2023-02-28T03:26:50;23;22;
44980;PMS5003;67464;52.438;-1.904;2023-02-28T03:29:15;31;29;
44980;PMS5003;67464;52.438;-1.904;2023-02-28T03:31:38;26;21;
44980;PMS5003;67464;52.438;-1.904;2023-02-28T03:34:04;22;20;
44980;PMS5003;67464;52.438;-1.904;2023-02-28T03:36:29;30;24;
44980;PMS5003;67464;52.438;-1.904;2023-02-28T03:38:55;32;29;
44980;PMS5003;67464;52.438;-1.904;2023-02-28T03:41:21;22;20;
44980;PMS5003;67464;52.438;-1.904;2023-02-28T03:43:47;23;20;
44980;PMS5003;67464;52.438;-1.904;2023-02-28T03:46:12;20;20;
44980;PMS5003;67464;52.438;-1.904;2023-02-28T03:48:37;26;21;
44980;PMS5003;67464;52.438;-1.904;2023-02-28T03:51:01;20;19;
44980;PMS5003;67464;52.438;-1.904;2023-02-28T03:53:27;19;18;
44980;PMS5003;67464;52.438;-1.904;2023-02-28T03:55:53;15;14;
44980;PMS5003;67464;52.438;-1.904;2023-02-28T03:58:20;20;18;
44980;PMS5003;67464;52.438;-1.904;2023-02-28T04:00:43;22;21;
44980;PMS5003;67464;52.438;-1.904;2023-02-28T04:03:08;23;15;
44980;PMS5003;67464;52.438;-1.904;2023-02-28T04:05:33;20;17;
44980;PMS5003;67464;52.438;-1.904;2023-02-28T04:08:03;19;19;
44980;PMS5003;67464;52.438;-1.904;2023-02-28T04:10:24;18;13;
44980;PMS5003;67464;52.438;-1.904;2023-02-28T04:12:49;15;14;
44980;PMS5003;67464;52.438;-1.904;2023-02-28T04:15:14;18;14;
44980;PMS5003;67464;52.438;-1.904;2023-02-28T04:17:40;14;12;
44980;PMS5003;67464;52.438;-1.904;2023-02-28T04:20:05;17;13;
44980;PMS5003;67464;52.438;-1.904;2023-02-28T04:22:30;12;12;
44980;PMS5003;67464;52.438;-1.904;2023-02-28T04:24:55;12;11;
44980;PMS5003;67464;52.438;-1.904;2023-02-28T04:27:21;12;10;
44980;PMS5003;67464;52.438;-1.904;2023-02-28T04:29:46;13;10;
44980;PMS5003;67464;52.438;-1.904;2023-02-28T04:32:12;10;10;
44980;PMS5003;67464;52.438;-1.904;2023-02-28T04:34:38;19;13;
44980;PMS5003;67464;52.438;-1.904;2023-02-28T04:37:03;11;11;
44980;PMS5003;67464;52.438;-1.904;2023-02-28T04:39:28;16;12;
44980;PMS5003;67464;52.438;-1.904;2023-02-28T04:41:54;16;16;
44980;PMS5003;67464;52.438;-1.904;2023-02-28T04:44:19;16;16;
44980;PMS5003;67464;52.438;-1.904;2023-02-28T04:46:44;17;13;
44980;PMS5003;67464;52.438;-1.904;2023-02-28T04:49:10;17;12;
44980;PMS5003;67464;52.438;-1.904;2023-02-28T04:51:35;16;12;
44980;PMS5003;67464;52.438;-1.904;2023-02-28T04:54:01;20;19;
44980;PMS5003;67464;52.438;-1.904;2023-02-28T04:56:26;18;14;
44980;PMS5003;67464;52.438;-1.904;2023-02-28T04:58:52;16;13;
44980;PMS5003;67464;52.438;-1.904;2023-02-28T05:01:19;21;20;
44980;PMS5003;67464;52.438;-1.904;2023-02-28T05:03:43;23;22;
44980;PMS5003;67464;52.438;-1.904;2023-02-28T05:06:08;19;19;
44980;PMS5003;67464;52.438;-1.904;2023-02-28T05:08:34;21;20;
44980;PMS5003;67464;52.438;-1.904;2023-02-28T05:11:00;21;20;
44980;PMS5003;67464;52.438;-1.904;2023-02-28T05:13:25;20;19;
44980;PMS5003;67464;52.438;-1.904;2023-02-28T05:15:51;20;19;
44980;PMS5003;67464;52.438;-1.904;2023-02-28T05:18:16;16;16;
44980;PMS5003;67464;52.438;-1.904;2023-02-28T05:20:42;18;17;
44980;PMS5003;67464;52.438;-1.904;2023-02-28T05:23:08;14;14;
44980;PMS5003;67464;52.438;-1.904;2023-02-28T05:25:32;28;24;
44980;PMS5003;67464;52.438;-1.904;2023-02-28T05:27:58;25;18;
44980;PMS5003;67464;52.438;-1.904;2023-02-28T05:30:24;28;27;
44980;PMS5003;67464;52.438;-1.904;2023-02-28T05:32:49;24;21;
44980;PMS5003;67464;52.438;-1.904;2023-02-28T05:35:14;22;21;
44980;PMS5003;67464;52.438;-1.904;2023-02-28T05:37:39;30;22;
44980;PMS5003;67464;52.438;-1.904;2023-02-28T05:40:06;27;24;
44980;PMS5003;67464;52.438;-1.904;2023-02-28T05:42:30;17;17;
44980;PMS5003;67464;52.438;-1.904;2023-02-28T05:44:56;29;22;
44980;PMS5003;67464;52.438;-1.904;2023-02-28T05:47:22;31;27;
44980;PMS5003;67464;52.438;-1.904;2023-02-28T05:49:47;30;26;
44980;PMS5003;67464;52.438;-1.904;2023-02-28T05:52:12;26;20;
44980;PMS5003;67464;52.438;-1.904;2023-02-28T05:54:37;24;20;
44980;PMS5003;67464;52.438;-1.904;2023-02-28T05:57:03;30;28;
44980;PMS5003;67464;52.438;-1.904;2023-02-28T05:59:28;23;22;
44980;PMS5003;67464;52.438;-1.904;2023-02-28T06:01:54;24;22;
44980;PMS5003;67464;52.438;-1.904;2023-02-28T06:04:20;31;22;
44980;PMS5003;67464;52.438;-1.904;2023-02-28T06:06:46;33;29;
44980;PMS5003;67464;52.438;-1.904;2023-02-28T06:09:10;26;22;
44980;PMS5003;67464;52.438;-1.904;2023-02-28T06:11:36;24;22;
44980;PMS5003;67464;52.438;-1.904;2023-02-28T06:14:01;30;27;
44980;PMS5003;67464;52.438;-1.904;2023-02-28T06:16:27;28;27;
44980;PMS5003;67464;52.438;-1.904;2023-02-28T06:18:53;36;30;
44980;PMS5003;67464;52.438;-1.904;2023-02-28T06:21:18;21;17;
44980;PMS5003;67464;52.438;-1.904;2023-02-28T06:23:43;27;20;
44980;PMS5003;67464;52.438;-1.904;2023-02-28T06:26:08;26;21;
44980;PMS5003;67464;52.438;-1.904;2023-02-28T06:28:33;26;23;
44980;PMS5003;67464;52.438;-1.904;2023-02-28T06:30:59;24;21;
44980;PMS5003;67464;52.438;-1.904;2023-02-28T06:33:24;23;23;
44980;PMS5003;67464;52.438;-1.904;2023-02-28T06:35:50;32;24;
44980;PMS5003;67464;52.438;-1.904;2023-02-28T06:38:15;32;24;
44980;PMS5003;67464;52.438;-1.904;2023-02-28T06:40:41;35;22;
44980;PMS5003;67464;52.438;-1.904;2023-02-28T06:43:06;27;25;
44980;PMS5003;67464;52.438;-1.904;2023-02-28T06:45:31;31;29;
44980;PMS5003;67464;52.438;-1.904;2023-02-28T06:47:56;27;25;
44980;PMS5003;67464;52.438;-1.904;2023-02-28T06:50:22;30;26;
44980;PMS5003;67464;52.438;-1.904;2023-02-28T06:52:47;37;33;
44980;PMS5003;67464;52.438;-1.904;2023-02-28T06:55:13;29;24;
44980;PMS5003;67464;52.438;-1.904;2023-02-28T06:57:38;31;25;
44980;PMS5003;67464;52.438;-1.904;2023-02-28T07:00:05;25;23;
44980;PMS5003;67464;52.438;-1.904;2023-02-28T07:02:29;29;25;
44980;PMS5003;67464;52.438;-1.904;2023-02-28T07:04:55;30;29;
44980;PMS5003;67464;52.438;-1.904;2023-02-28T07:07:20;29;25;
44980;PMS5003;67464;52.438;-1.904;2023-02-28T07:09:46;28;26;
44980;PMS5003;67464;52.438;-1.904;2023-02-28T07:12:11;33;25;
44980;PMS5003;67464;52.438;-1.904;2023-02-28T07:14:37;34;29;
44980;PMS5003;67464;52.438;-1.904;2023-02-28T07:17:02;23;21;
44980;PMS5003;67464;52.438;-1.904;2023-02-28T07:19:27;27;26;
44980;PMS5003;67464;52.438;-1.904;2023-02-28T07:21:52;33;26;
44980;PMS5003;67464;52.438;-1.904;2023-02-28T07:24:17;29;26;
44980;PMS5003;67464;52.438;-1.904;2023-02-28T07:26:42;25;25;
44980;PMS5003;67464;52.438;-1.904;2023-02-28T07:29:08;34;27;
44980;PMS5003;67464;52.438;-1.904;2023-02-28T07:31:33;24;21;
44980;PMS5003;67464;52.438;-1.904;2023-02-28T07:33:58;33;21;
44980;PMS5003;67464;52.438;-1.904;2023-02-28T07:36:24;22;21;
44980;PMS5003;67464;52.438;-1.904;2023-02-28T07:38:49;27;21;
44980;PMS5003;67464;52.438;-1.904;2023-02-28T07:41:14;25;25;
44980;PMS5003;67464;52.438;-1.904;2023-02-28T07:43:40;27;26;
44980;PMS5003;67464;52.438;-1.904;2023-02-28T07:46:07;19;18;
44980;PMS5003;67464;52.438;-1.904;2023-02-28T07:48:31;22;18;
44980;PMS5003;67464;52.438;-1.904;2023-02-28T07:50:58;20;18;
44980;PMS5003;67464;52.438;-1.904;2023-02-28T07:53:23;24;20;
44980;PMS5003;67464;52.438;-1.904;2023-02-28T07:55:49;19;17;
44980;PMS5003;67464;52.438;-1.904;2023-02-28T07:58:14;20;16;
44980;PMS5003;67464;52.438;-1.904;2023-02-28T08:00:39;24;20;
44980;PMS5003;67464;52.438;-1.904;2023-02-28T08:03:04;18;17;
44980;PMS5003;67464;52.438;-1.904;2023-02-28T08:05:29;21;18;
44980;PMS5003;67464;52.438;-1.904;2023-02-28T08:07:55;19;15;
44980;PMS5003;67464;52.438;-1.904;2023-02-28T08:10:20;17;17;
44980;PMS5003;67464;52.438;-1.904;2023-02-28T08:12:46;18;13;
44980;PMS5003;67464;52.438;-1.904;2023-02-28T08:15:12;18;15;
44980;PMS5003;67464;52.438;-1.904;2023-02-28T08:17:37;14;12;
44980;PMS5003;67464;52.438;-1.904;2023-02-28T08:20:03;15;12;
44980;PMS5003;67464;52.438;-1.904;2023-02-28T08:22:29;12;11;
44980;PMS5003;67464;52.438;-1.904;2023-02-28T08:24:54;13;11;
44980;PMS5003;67464;52.438;-1.904;2023-02-28T08:27:20;15;10;
44980;PMS5003;67464;52.438;-1.904;2023-02-28T08:29:45;11;10;
44980;PMS5003;67464;52.438;-1.904;2023-02-28T08:32:10;15;13;
44980;PMS5003;67464;52.438;-1.904;2023-02-28T08:34:38;11;11;
44980;PMS5003;67464;52.438;-1.904;2023-02-28T08:37:01;12;12;
44980;PMS5003;67464;52.438;-1.904;2023-02-28T08:39:27;12;11;
44980;PMS5003;67464;52.438;-1.904;2023-02-28T08:41:53;14;11;
44980;PMS5003;67464;52.438;-1.904;2023-02-28T08:44:18;11;11;
44980;PMS5003;67464;52.438;-1.904;2023-02-28T08:46:43;12;12;
44980;PMS5003;67464;52.438;-1.904;2023-02-28T08:49:09;15;12;
44980;PMS5003;67464;52.438;-1.904;2023-02-28T08:51:34;12;12;
44980;PMS5003;67464;52.438;-1.904;2023-02-28T08:53:59;16;14;
44980;PMS5003;67464;52.438;-1.904;2023-02-28T08:56:25;16;11;
44980;PMS5003;67464;52.438;-1.904;2023-02-28T08:58:50;12;12;
44980;PMS5003;67464;52.438;-1.904;2023-02-28T09:01:16;11;11;
44980;PMS5003;67464;52.438;-1.904;2023-02-28T09:03:42;12;12;
44980;PMS5003;67464;52.438;-1.904;2023-02-28T09:06:08;14;13;
44980;PMS5003;67464;52.438;-1.904;2023-02-28T09:08:33;13;13;
44980;PMS5003;67464;52.438;-1.904;2023-02-28T09:10:59;18;15;
44980;PMS5003;67464;52.438;-1.904;2023-02-28T09:13:24;18;13;
44980;PMS5003;67464;52.438;-1.904;2023-02-28T09:15:50;15;13;
44980;PMS5003;67464;52.438;-1.904;2023-02-28T09:18:15;11;11;
44980;PMS5003;67464;52.438;-1.904;2023-02-28T09:20:41;17;14;
44980;PMS5003;67464;52.438;-1.904;2023-02-28T09:23:06;12;12;
44980;PMS5003;67464;52.438;-1.904;2023-02-28T09:25:32;12;10;
44980;PMS5003;67464;52.438;-1.904;2023-02-28T09:27:58;17;13;
44980;PMS5003;67464;52.438;-1.904;2023-02-28T09:30:23;10;7;
44980;PMS5003;67464;52.438;-1.904;2023-02-28T09:32:49;11;7;
44980;PMS5003;67464;52.438;-1.904;2023-02-28T09:35:14;12;10;
44980;PMS5003;67464;52.438;-1.904;2023-02-28T09:37:40;11;10;
44980;PMS5003;67464;52.438;-1.904;2023-02-28T09:40:06;10;8;
44980;PMS5003;67464;52.438;-1.904;2023-02-28T09:42:32;8;6;
44980;PMS5003;67464;52.438;-1.904;2023-02-28T09:44:57;13;11;
44980;PMS5003;67464;52.438;-1.904;2023-02-28T09:47:25;8;8;
44980;PMS5003;67464;52.438;-1.904;2023-02-28T09:49:48;10;7;
44980;PMS5003;67464;52.438;-1.904;2023-02-28T09:52:15;15;10;
44980;PMS5003;67464;52.438;-1.904;2023-02-28T09:54:40;6;6;
44980;PMS5003;67464;52.438;-1.904;2023-02-28T09:57:07;11;11;
44980;PMS5003;67464;52.438;-1.904;2023-02-28T09:59:41;9;8;
44980;PMS5003;67464;52.438;-1.904;2023-02-28T10:02:01;9;8;
44980;PMS5003;67464;52.438;-1.904;2023-02-28T10:04:28;13;11;
44980;PMS5003;67464;52.438;-1.904;2023-02-28T10:06:49;7;7;
44980;PMS5003;67464;52.438;-1.904;2023-02-28T10:09:15;11;8;
44980;PMS5003;67464;52.438;-1.904;2023-02-28T10:11:40;8;8;
44980;PMS5003;67464;52.438;-1.904;2023-02-28T10:14:07;8;8;
44980;PMS5003;67464;52.438;-1.904;2023-02-28T10:16:33;6;6;
44980;PMS5003;67464;52.438;-1.904;2023-02-28T10:18:58;5;4;
44980;PMS5003;67464;52.438;-1.904;2023-02-28T10:21:25;5;5;
44980;PMS5003;67464;52.438;-1.904;2023-02-28T10:23:48;15;11;
44980;PMS5003;67464;52.438;-1.904;2023-02-28T10:26:14;4;4;
44980;PMS5003;67464;52.438;-1.904;2023-02-28T10:28:39;9;8;
44980;PMS5003;67464;52.438;-1.904;2023-02-28T10:31:05;9;7;
44980;PMS5003;67464;52.438;-1.904;2023-02-28T10:33:31;7;6;
44980;PMS5003;67464;52.438;-1.904;2023-02-28T10:35:56;8;6;
44980;PMS5003;67464;52.438;-1.904;2023-02-28T10:38:24;8;6;
44980;PMS5003;67464;52.438;-1.904;2023-02-28T10:40:48;11;7;
44980;PMS5003;67464;52.438;-1.904;2023-02-28T10:43:18;10;8;
44980;PMS5003;67464;52.438;-1.904;2023-02-28T10:45:40;6;4;
44980;PMS5003;67464;52.438;-1.904;2023-02-28T10:48:06;8;6;
44980;PMS5003;67464;52.438;-1.904;2023-02-28T10:50:33;5;5;
44980;PMS5003;67464;52.438;-1.904;2023-02-28T10:53:02;9;6;
44980;PMS5003;67464;52.438;-1.904;2023-02-28T10:55:23;8;8;
44980;PMS5003;67464;52.438;-1.904;2023-02-28T10:57:48;7;7;
44980;PMS5003;67464;52.438;-1.904;2023-02-28T11:00:14;7;7;
44980;PMS5003;67464;52.438;-1.904;2023-02-28T11:02:39;6;5;
44980;PMS5003;67464;52.438;-1.904;2023-02-28T11:07:30;7;5;
44980;PMS5003;67464;52.438;-1.904;2023-02-28T11:09:56;8;6;
44980;PMS5003;67464;52.438;-1.904;2023-02-28T11:12:23;5;5;
44980;PMS5003;67464;52.438;-1.904;2023-02-28T11:14:48;8;6;
44980;PMS5003;67464;52.438;-1.904;2023-02-28T11:17:14;7;6;
44980;PMS5003;67464;52.438;-1.904;2023-02-28T11:19:40;6;6;
44980;PMS5003;67464;52.438;-1.904;2023-02-28T11:22:05;8;8;
44980;PMS5003;67464;52.438;-1.904;2023-02-28T11:24:32;7;7;
44980;PMS5003;67464;52.438;-1.904;2023-02-28T11:26:56;7;7;
44980;PMS5003;67464;52.438;-1.904;2023-02-28T11:29:23;6;4;
44980;PMS5003;67464;52.438;-1.904;2023-02-28T11:36:40;6;5;
44980;PMS5003;67464;52.438;-1.904;2023-02-28T11:39:08;7;7;
44980;PMS5003;67464;52.438;-1.904;2023-02-28T11:41:34;12;11;
44980;PMS5003;67464;52.438;-1.904;2023-02-28T11:44:05;7;6;
44980;PMS5003;67464;52.438;-1.904;2023-02-28T11:46:24;6;6;
44980;PMS5003;67464;52.438;-1.904;2023-02-28T11:48:51;6;6;
44980;PMS5003;67464;52.438;-1.904;2023-02-28T11:51:15;9;8;
44980;PMS5003;67464;52.438;-1.904;2023-02-28T11:53:47;8;8;
44980;PMS5003;67464;52.438;-1.904;2023-02-28T11:56:06;9;7;
44980;PMS5003;67464;52.438;-1.904;2023-02-28T11:58:33;7;6;
44980;PMS5003;67464;52.438;-1.904;2023-02-28T12:01:00;9;8;
44980;PMS5003;67464;52.438;-1.904;2023-02-28T12:03:26;9;9;
44980;PMS5003;67464;52.438;-1.904;2023-02-28T12:05:50;8;8;
44980;PMS5003;67464;52.438;-1.904;2023-02-28T12:08:21;11;9;
44980;PMS5003;67464;52.438;-1.904;2023-02-28T12:10:42;9;9;
44980;PMS5003;67464;52.438;-1.904;2023-02-28T12:13:08;8;8;
44980;PMS5003;67464;52.438;-1.904;2023-02-28T12:15:43;9;6;
44980;PMS5003;67464;52.438;-1.904;2023-02-28T12:17:59;9;8;
44980;PMS5003;67464;52.438;-1.904;2023-02-28T12:20:25;7;7;
44980;PMS5003;67464;52.438;-1.904;2023-02-28T12:22:49;8;8;
44980;PMS5003;67464;52.438;-1.904;2023-02-28T12:27:40;6;6;
44980;PMS5003;67464;52.438;-1.904;2023-02-28T12:30:05;7;7;
44980;PMS5003;67464;52.438;-1.904;2023-02-28T12:32:31;6;6;
44980;PMS5003;67464;52.438;-1.904;2023-02-28T12:34:57;5;5;
44980;PMS5003;67464;52.438;-1.904;2023-02-28T12:37:24;8;8;
44980;PMS5003;67464;52.438;-1.904;2023-02-28T12:39:49;7;7;
44980;PMS5003;67464;52.438;-1.904;2023-02-28T12:42:16;5;5;
44980;PMS5003;67464;52.438;-1.904;2023-02-28T12:44:40;6;6;
44980;PMS5003;67464;52.438;-1.904;2023-02-28T12:47:05;7;7;
44980;PMS5003;67464;52.438;-1.904;2023-02-28T12:49:31;5;5;
44980;PMS5003;67464;52.438;-1.904;2023-02-28T12:51:56;6;6;
44980;PMS5003;67464;52.438;-1.904;2023-02-28T12:54:23;8;8;
44980;PMS5003;67464;52.438;-1.904;2023-02-28T12:56:48;10;7;
44980;PMS5003;67464;52.438;-1.904;2023-02-28T12:59:15;7;7;
44980;PMS5003;67464;52.438;-1.904;2023-02-28T13:01:42;8;7;
44980;PMS5003;67464;52.438;-1.904;2023-02-28T13:06:34;7;7;
44980;PMS5003;67464;52.438;-1.904;2023-02-28T13:09:02;5;5;
44980;PMS5003;67464;52.438;-1.904;2023-02-28T13:11:23;8;7;
44980;PMS5003;67464;52.438;-1.904;2023-02-28T13:13:47;6;5;
44980;PMS5003;67464;52.438;-1.904;2023-02-28T13:16:13;8;8;
44980;PMS5003;67464;52.438;-1.904;2023-02-28T13:18:39;7;7;
44980;PMS5003;67464;52.438;-1.904;2023-02-28T13:21:05;5;5;
44980;PMS5003;67464;52.438;-1.904;2023-02-28T13:23:36;5;5;
44980;PMS5003;67464;52.438;-1.904;2023-02-28T13:25:56;7;5;
44980;PMS5003;67464;52.438;-1.904;2023-02-28T13:33:22;6;5;
44980;PMS5003;67464;52.438;-1.904;2023-02-28T13:35:44;5;5;
44980;PMS5003;67464;52.438;-1.904;2023-02-28T13:40:31;8;6;
44980;PMS5003;67464;52.438;-1.904;2023-02-28T13:42:56;5;5;
44980;PMS5003;67464;52.438;-1.904;2023-02-28T13:45:23;6;6;
44980;PMS5003;67464;52.438;-1.904;2023-02-28T13:47:51;5;5;
44980;PMS5003;67464;52.438;-1.904;2023-02-28T13:50:14;7;5;
44980;PMS5003;67464;52.438;-1.904;2023-02-28T13:52:41;4;4;
44980;PMS5003;67464;52.438;-1.904;2023-02-28T13:55:17;6;5;
44980;PMS5003;67464;52.438;-1.904;2023-02-28T13:57:34;6;5;
44980;PMS5003;67464;52.438;-1.904;2023-02-28T14:00:01;3;2;
44980;PMS5003;67464;52.438;-1.904;2023-02-28T14:04:51;4;4;
44980;PMS5003;67464;52.438;-1.904;2023-02-28T14:07:17;3;3;
44980;PMS5003;67464;52.438;-1.904;2023-02-28T14:09:40;4;4;
44980;PMS5003;67464;52.438;-1.904;2023-02-28T14:16:56;6;6;
44980;PMS5003;67464;52.438;-1.904;2023-02-28T14:19:23;3;3;
44980;PMS5003;67464;52.438;-1.904;2023-02-28T14:21:51;3;3;
44980;PMS5003;67464;52.438;-1.904;2023-02-28T14:24:24;6;5;
44980;PMS5003;67464;52.438;-1.904;2023-02-28T14:26:49;5;5;
44980;PMS5003;67464;52.438;-1.904;2023-02-28T14:29:11;5;5;
44980;PMS5003;67464;52.438;-1.904;2023-02-28T14:31:33;5;5;
44980;PMS5003;67464;52.438;-1.904;2023-02-28T14:33:59;4;4;
44980;PMS5003;67464;52.438;-1.904;2023-02-28T14:36:23;5;5;
44980;PMS5003;67464;52.438;-1.904;2023-02-28T14:38:49;4;4;
44980;PMS5003;67464;52.438;-1.904;2023-02-28T14:41:16;3;3;
44980;PMS5003;67464;52.438;-1.904;2023-02-28T14:43:47;3;3;
44980;PMS5003;67464;52.438;-1.904;2023-02-28T14:46:05;4;4;
44980;PMS5003;67464;52.438;-1.904;2023-02-28T14:48:31;5;5;
44980;PMS5003;67464;52.438;-1.904;2023-02-28T14:50:57;3;3;
44980;PMS5003;67464;52.438;-1.904;2023-02-28T14:53:23;5;5;
44980;PMS5003;67464;52.438;-1.904;2023-02-28T14:55:48;6;6;
44980;PMS5003;67464;52.438;-1.904;2023-02-28T14:58:20;3;3;
44980;PMS5003;67464;52.438;-1.904;2023-02-28T15:05:31;4;4;
44980;PMS5003;67464;52.438;-1.904;2023-02-28T15:08:00;4;4;
44980;PMS5003;67464;52.438;-1.904;2023-02-28T15:10:23;5;5;
44980;PMS5003;67464;52.438;-1.904;2023-02-28T15:12:50;4;4;
44980;PMS5003;67464;52.438;-1.904;2023-02-28T15:15:14;4;4;
44980;PMS5003;67464;52.438;-1.904;2023-02-28T15:17:39;4;4;
44980;PMS5003;67464;52.438;-1.904;2023-02-28T15:20:10;4;3;
44980;PMS5003;67464;52.438;-1.904;2023-02-28T15:22:31;4;4;
44980;PMS5003;67464;52.438;-1.904;2023-02-28T15:24:56;5;5;
44980;PMS5003;67464;52.438;-1.904;2023-02-28T15:27:23;8;7;
44980;PMS5003;67464;52.438;-1.904;2023-02-28T15:29:48;5;5;
44980;PMS5003;67464;52.438;-1.904;2023-02-28T15:32:23;5;5;
44980;PMS5003;67464;52.438;-1.904;2023-02-28T15:34:40;7;5;
44980;PMS5003;67464;52.438;-1.904;2023-02-28T15:37:06;6;4;
44980;PMS5003;67464;52.438;-1.904;2023-02-28T15:39:31;4;4;
44980;PMS5003;67464;52.438;-1.904;2023-02-28T15:44:24;6;6;
44980;PMS5003;67464;52.438;-1.904;2023-02-28T15:46:54;6;4;
44980;PMS5003;67464;52.438;-1.904;2023-02-28T15:49:16;6;5;
44980;PMS5003;67464;52.438;-1.904;2023-02-28T15:51:40;8;5;
44980;PMS5003;67464;52.438;-1.904;2023-02-28T15:54:06;5;4;
44980;PMS5003;67464;52.438;-1.904;2023-02-28T15:56:32;7;5;
44980;PMS5003;67464;52.438;-1.904;2023-02-28T15:58:57;5;5;
44980;PMS5003;67464;52.438;-1.904;2023-02-28T16:01:24;7;5;
44980;PMS5003;67464;52.438;-1.904;2023-02-28T16:03:49;5;5;
44980;PMS5003;67464;52.438;-1.904;2023-02-28T16:08:40;5;5;
44980;PMS5003;67464;52.438;-1.904;2023-02-28T16:11:07;8;6;
44980;PMS5003;67464;52.438;-1.904;2023-02-28T16:13:31;5;5;
44980;PMS5003;67464;52.438;-1.904;2023-02-28T16:15:57;4;4;
44980;PMS5003;67464;52.438;-1.904;2023-02-28T16:18:23;8;6;
44980;PMS5003;67464;52.438;-1.904;2023-02-28T16:20:48;5;4;
44980;PMS5003;67464;52.438;-1.904;2023-02-28T16:23:14;4;4;
44980;PMS5003;67464;52.438;-1.904;2023-02-28T16:25:40;4;4;
44980;PMS5003;67464;52.438;-1.904;2023-02-28T16:28:07;4;4;
44980;PMS5003;67464;52.438;-1.904;2023-02-28T16:30:31;6;6;
44980;PMS5003;67464;52.438;-1.904;2023-02-28T16:32:57;12;12;
44980;PMS5003;67464;52.438;-1.904;2023-02-28T16:35:23;8;7;
44980;PMS5003;67464;52.438;-1.904;2023-02-28T16:37:50;8;8;
44980;PMS5003;67464;52.438;-1.904;2023-02-28T16:40:15;7;7;
44980;PMS5003;67464;52.438;-1.904;2023-02-28T16:42:40;15;14;